Airport View

Enter AWOS ICAO identifier for current METAR.

ex. KFNL

KGCK 031554Z 20008KT 10SM CLR 25/18 A3013 RMK AO2 SLP171 T02500183

3 Jul 2020 16:56

Frequency: 121.325

Phone: 620-275-0803

Other Area AWOS: K19S - KULS - KDDC - K3K3

TAF KGCK 031120Z 0312/0412 16006KT P6SM FEW250